createdAt,value
2023-06-24T00:02:27.390Z,11.05
2023-06-24T00:04:54.953Z,9.85
2023-06-24T00:07:23.801Z,9.60
2023-06-24T00:09:52.132Z,9.00
2023-06-24T00:12:19.915Z,13.55
2023-06-24T00:14:51.760Z,10.50
2023-06-24T00:17:19.325Z,11.82
2023-06-24T00:19:47.165Z,12.18
2023-06-24T00:22:16.046Z,16.23
2023-06-24T00:24:44.157Z,10.40
2023-06-24T00:27:12.048Z,13.13
2023-06-24T00:29:39.582Z,9.82
2023-06-24T00:32:07.779Z,8.75
2023-06-24T00:34:35.794Z,10.85
2023-06-24T00:37:04.361Z,9.80
2023-06-24T00:39:31.870Z,11.68
2023-06-24T00:42:00.673Z,9.55
2023-06-24T00:44:28.628Z,17.23
2023-06-24T00:46:56.189Z,12.20
2023-06-24T00:49:23.681Z,12.75
2023-06-24T00:51:52.245Z,13.05
2023-06-24T00:54:19.725Z,10.95
2023-06-24T00:56:48.269Z,10.48
2023-06-24T00:59:17.890Z,18.98
2023-06-24T01:01:47.350Z,8.82
2023-06-24T01:04:15.013Z,12.55
2023-06-24T01:06:45.202Z,12.77
2023-06-24T01:09:14.166Z,10.93
2023-06-24T01:11:41.775Z,11.25
2023-06-24T01:14:09.621Z,13.02
2023-06-24T01:16:57.166Z,12.63
2023-06-24T01:19:43.831Z,11.68
2023-06-24T01:22:25.824Z,12.75
2023-06-24T01:25:06.548Z,10.60
2023-06-24T01:27:42.963Z,12.07
2023-06-24T01:30:28.547Z,11.03
2023-06-24T01:33:00.981Z,10.73
2023-06-24T01:35:32.879Z,13.38
2023-06-24T01:38:07.821Z,9.27
2023-06-24T01:40:43.935Z,14.27
2023-06-24T01:43:12.997Z,8.98
2023-06-24T01:45:44.029Z,11.63
2023-06-24T01:48:22.126Z,17.45
2023-06-24T01:51:14.537Z,21.73
2023-06-24T01:53:49.601Z,9.02
2023-06-24T01:56:18.696Z,11.18
2023-06-24T01:58:48.377Z,9.13
2023-06-24T02:01:16.458Z,11.40
2023-06-24T02:03:44.872Z,11.73
2023-06-24T02:06:13.900Z,11.50
2023-06-24T02:08:42.648Z,15.40
2023-06-24T02:11:10.896Z,9.70
2023-06-24T02:13:41.275Z,9.43
2023-06-24T02:16:15.264Z,14.35
2023-06-24T02:18:44.376Z,11.38
2023-06-24T02:21:12.951Z,9.95
2023-06-24T02:23:40.914Z,12.10
2023-06-24T02:26:08.576Z,10.88
2023-06-24T02:28:36.957Z,13.48
2023-06-24T02:31:05.270Z,10.20
2023-06-24T02:33:33.104Z,16.27
2023-06-24T02:36:00.444Z,12.52
2023-06-24T02:38:29.037Z,14.32
2023-06-24T02:40:57.562Z,13.35
2023-06-24T02:43:25.296Z,13.73
2023-06-24T02:45:54.388Z,12.68
2023-06-24T02:48:22.674Z,10.80
2023-06-24T02:50:50.384Z,13.73
2023-06-24T02:53:18.219Z,25.60
2023-06-24T02:55:51.286Z,15.13
2023-06-24T02:58:18.957Z,9.30
2023-06-24T03:01:01.871Z,12.73
2023-06-24T03:03:50.543Z,13.88
2023-06-24T03:06:19.595Z,10.43
2023-06-24T03:08:47.591Z,21.20
2023-06-24T03:11:17.192Z,13.70
2023-06-24T03:13:45.184Z,14.63
2023-06-24T03:16:19.619Z,15.35
2023-06-24T03:19:07.532Z,19.23
2023-06-24T03:21:35.752Z,16.60
2023-06-24T03:24:08.860Z,12.77
2023-06-24T03:26:40.590Z,20.05
2023-06-24T03:29:10.695Z,15.30
2023-06-24T03:31:45.183Z,12.75
2023-06-24T03:34:14.984Z,15.52
2023-06-24T03:36:42.319Z,15.45
2023-06-24T03:39:10.081Z,19.85
2023-06-24T03:41:37.423Z,16.17
2023-06-24T03:44:04.892Z,16.83
2023-06-24T03:46:34.286Z,16.23
2023-06-24T03:49:01.822Z,13.25
2023-06-24T03:51:32.012Z,17.05
2023-06-24T03:53:59.565Z,11.15
2023-06-24T03:56:28.418Z,15.82
2023-06-24T03:58:55.755Z,15.05
2023-06-24T04:01:24.924Z,14.40
2023-06-24T04:03:52.859Z,19.38
2023-06-24T04:06:20.197Z,19.40
2023-06-24T04:08:49.774Z,16.90
2023-06-24T04:11:17.340Z,17.17
2023-06-24T04:13:46.843Z,22.25
2023-06-24T04:16:14.887Z,26.08
2023-06-24T04:18:42.199Z,22.60
2023-06-24T04:21:09.597Z,18.00
2023-06-24T04:23:37.177Z,22.02
2023-06-24T04:26:04.540Z,17.73
2023-06-24T04:28:31.873Z,20.10
2023-06-24T04:30:59.509Z,22.10
2023-06-24T04:33:27.448Z,25.42
2023-06-24T04:35:57.615Z,19.05
2023-06-24T04:38:25.779Z,21.17
2023-06-24T04:40:54.021Z,19.90
2023-06-24T04:43:21.318Z,24.15
2023-06-24T04:45:48.664Z,25.55
2023-06-24T04:48:16.081Z,25.88
2023-06-24T04:50:43.662Z,21.38
2023-06-24T04:53:11.377Z,23.55
2023-06-24T04:55:39.032Z,26.38
2023-06-24T04:58:06.537Z,24.17
2023-06-24T05:00:34.216Z,28.15
2023-06-24T05:03:01.668Z,24.92
2023-06-24T05:05:29.198Z,24.13
2023-06-24T05:07:56.728Z,26.42
2023-06-24T05:10:24.103Z,25.10
2023-06-24T05:12:51.366Z,23.30
2023-06-24T05:15:18.863Z,26.90
2023-06-24T05:17:46.447Z,23.25
2023-06-24T05:20:14.069Z,24.55
2023-06-24T05:22:41.563Z,21.20
2023-06-24T05:25:09.095Z,30.88
2023-06-24T05:27:36.845Z,24.65
2023-06-24T05:30:04.342Z,24.50
2023-06-24T05:32:31.693Z,25.15
2023-06-24T05:34:59.062Z,18.83
2023-06-24T05:37:26.437Z,20.80
2023-06-24T05:39:54.010Z,20.70
2023-06-24T05:42:21.304Z,16.88
2023-06-24T05:44:48.718Z,21.27
2023-06-24T05:47:16.167Z,22.52
2023-06-24T05:49:43.472Z,29.40
2023-06-24T05:52:10.804Z,18.20
2023-06-24T05:54:38.130Z,22.35
2023-06-24T05:57:08.363Z,22.08
2023-06-24T05:59:35.706Z,16.55
2023-06-24T06:02:03.124Z,22.35
2023-06-24T06:04:30.478Z,20.58
2023-06-24T06:06:58.265Z,17.10
2023-06-24T06:09:25.707Z,16.88
2023-06-24T06:11:53.087Z,15.15
2023-06-24T06:14:20.487Z,17.20
2023-06-24T06:16:47.764Z,16.92
2023-06-24T06:19:15.070Z,19.63
2023-06-24T06:21:42.354Z,21.58
2023-06-24T06:24:09.814Z,13.90
2023-06-24T06:26:45.443Z,12.95
2023-06-24T06:29:13.398Z,13.55
2023-06-24T06:31:40.783Z,16.08
2023-06-24T06:34:09.693Z,13.35
2023-06-24T06:36:37.409Z,17.48
2023-06-24T06:39:04.719Z,15.23
2023-06-24T06:41:31.993Z,15.77
2023-06-24T06:44:00.194Z,14.43
2023-06-24T06:46:27.570Z,12.57
2023-06-24T06:48:54.965Z,9.85
2023-06-24T06:51:22.260Z,11.63
2023-06-24T06:53:49.697Z,11.27
2023-06-24T06:56:23.972Z,9.73
2023-06-24T06:58:52.135Z,16.55
2023-06-24T07:01:19.838Z,21.52
2023-06-24T07:03:47.441Z,15.70
2023-06-24T07:06:14.869Z,13.02
2023-06-24T07:08:42.241Z,11.05
2023-06-24T07:11:09.597Z,21.90
2023-06-24T07:13:37.193Z,27.70
2023-06-24T07:16:04.880Z,15.52
2023-06-24T07:18:32.227Z,11.55
2023-06-24T07:21:01.188Z,12.82
2023-06-24T07:23:28.537Z,24.63
2023-06-24T07:25:55.807Z,15.50
2023-06-24T07:28:23.246Z,15.50
2023-06-24T07:30:50.584Z,15.80
2023-06-24T07:33:17.942Z,12.90
2023-06-24T07:35:45.247Z,16.88
2023-06-24T07:38:13.489Z,9.95
2023-06-24T07:40:40.866Z,17.23
2023-06-24T07:43:08.276Z,10.45
2023-06-24T07:45:35.972Z,10.40
2023-06-24T07:48:03.775Z,14.50
2023-06-24T07:50:32.250Z,16.42
2023-06-24T07:52:59.739Z,8.75
2023-06-24T07:55:27.046Z,12.13
2023-06-24T07:57:54.566Z,11.45
2023-06-24T08:00:21.841Z,11.50
2023-06-24T08:02:49.206Z,9.90
2023-06-24T08:05:19.611Z,12.57
2023-06-24T08:07:46.936Z,10.55
2023-06-24T08:10:14.380Z,22.42
2023-06-24T08:12:41.728Z,13.18
2023-06-24T08:15:09.533Z,19.58
2023-06-24T08:17:37.100Z,13.43
2023-06-24T08:20:05.475Z,11.52
2023-06-24T08:22:32.883Z,13.45
2023-06-24T08:25:00.254Z,14.02
2023-06-24T08:27:27.701Z,14.68
2023-06-24T08:29:55.103Z,13.07
2023-06-24T08:32:22.553Z,8.93
2023-06-24T08:34:49.981Z,13.27
2023-06-24T08:37:17.230Z,10.63
2023-06-24T08:39:44.568Z,14.63
2023-06-24T08:42:11.871Z,10.75
2023-06-24T08:44:39.144Z,9.57
2023-06-24T08:47:06.838Z,10.68
2023-06-24T08:49:39.629Z,13.00
2023-06-24T08:52:14.975Z,8.73
2023-06-24T08:54:42.918Z,9.90
2023-06-24T08:57:15.630Z,13.40
2023-06-24T08:59:43.813Z,13.25
2023-06-24T09:02:12.516Z,9.50
2023-06-24T09:04:39.946Z,9.05
2023-06-24T09:07:08.479Z,17.25
2023-06-24T09:09:47.168Z,11.48
2023-06-24T09:12:16.486Z,6.80
2023-06-24T09:14:49.979Z,8.80
2023-06-24T09:17:18.282Z,11.90
2023-06-24T09:19:45.769Z,12.20
2023-06-24T09:22:17.672Z,8.15
2023-06-24T09:24:49.168Z,10.82
2023-06-24T09:27:21.130Z,18.42
2023-06-24T09:29:49.006Z,10.25
2023-06-24T09:32:16.491Z,11.77
2023-06-24T09:34:44.863Z,11.68
2023-06-24T09:37:22.177Z,7.53
2023-06-24T09:39:49.493Z,10.65
2023-06-24T09:42:21.587Z,15.40
2023-06-24T09:44:54.858Z,7.22
2023-06-24T09:47:26.106Z,10.20
2023-06-24T09:49:54.718Z,10.35
2023-06-24T09:52:23.592Z,4.45
2023-06-24T09:54:55.326Z,7.40
2023-06-24T09:57:28.091Z,6.07
2023-06-24T09:59:57.158Z,7.13
2023-06-24T10:02:25.184Z,5.57
2023-06-24T10:04:54.064Z,9.23
2023-06-24T10:07:21.777Z,7.03
2023-06-24T10:09:50.083Z,4.53
2023-06-24T10:12:17.465Z,7.32
2023-06-24T10:14:44.969Z,10.48
2023-06-24T10:17:13.590Z,3.85
2023-06-24T10:19:42.166Z,4.68
2023-06-24T10:22:11.585Z,5.97
2023-06-24T10:24:42.899Z,5.45
2023-06-24T10:27:23.380Z,3.42
2023-06-24T10:29:52.374Z,3.60
2023-06-24T10:32:22.658Z,6.63
2023-06-24T10:34:57.767Z,6.03
2023-06-24T10:37:27.759Z,3.88
2023-06-24T10:39:59.542Z,4.57
2023-06-24T10:42:28.331Z,4.82
2023-06-24T10:44:57.962Z,3.45
2023-06-24T10:47:26.451Z,2.22
2023-06-24T10:49:54.287Z,5.55
2023-06-24T10:52:24.104Z,2.58
2023-06-24T10:54:53.717Z,4.50
2023-06-24T10:57:28.372Z,1.70
2023-06-24T10:59:57.442Z,3.20
2023-06-24T11:02:28.290Z,2.63
2023-06-24T11:04:57.458Z,5.47
2023-06-24T11:07:26.587Z,4.45
2023-06-24T11:09:56.184Z,4.50
2023-06-24T11:12:38.208Z,3.22
2023-06-24T11:15:07.580Z,3.17
2023-06-24T11:17:36.504Z,2.95
2023-06-24T11:20:08.705Z,2.35
2023-06-24T11:22:36.127Z,5.47
2023-06-24T11:25:04.033Z,4.10
2023-06-24T11:27:32.434Z,3.63
2023-06-24T11:30:03.656Z,3.10
2023-06-24T11:32:38.633Z,3.67
2023-06-24T11:35:10.749Z,4.65
2023-06-24T11:37:38.461Z,4.38
2023-06-24T11:40:08.774Z,2.95
2023-06-24T11:42:41.317Z,7.70
2023-06-24T11:45:12.702Z,3.97
2023-06-24T11:47:41.732Z,6.18
2023-06-24T11:50:10.537Z,6.40
2023-06-24T11:52:41.616Z,6.07
2023-06-24T11:55:18.816Z,4.78
2023-06-24T11:57:57.654Z,3.17
2023-06-24T12:00:39.298Z,4.18
2023-06-24T12:03:10.651Z,5.95
2023-06-24T12:05:45.528Z,6.93
2023-06-24T12:08:15.001Z,5.88
2023-06-24T12:10:44.272Z,3.78
2023-06-24T12:13:11.668Z,5.75
2023-06-24T12:15:39.168Z,6.65
2023-06-24T12:18:06.856Z,5.15
2023-06-24T12:20:38.322Z,4.75
2023-06-24T12:23:07.145Z,9.70
2023-06-24T12:25:34.788Z,4.28
2023-06-24T12:28:02.230Z,8.48
2023-06-24T12:30:29.869Z,3.97
2023-06-24T12:32:57.514Z,3.97
2023-06-24T12:35:28.067Z,5.57
2023-06-24T12:37:55.729Z,5.03
2023-06-24T12:40:23.432Z,5.07
2023-06-24T12:42:50.852Z,4.45
2023-06-24T12:45:18.437Z,4.63
2023-06-24T12:47:45.933Z,3.67
2023-06-24T12:50:13.799Z,2.90
2023-06-24T12:52:41.414Z,3.95
2023-06-24T12:55:09.254Z,6.25
2023-06-24T12:57:37.384Z,3.83
2023-06-24T13:00:09.369Z,7.72
2023-06-24T13:02:37.236Z,6.40
2023-06-24T13:05:05.294Z,4.60
2023-06-24T13:07:33.373Z,5.03
2023-06-24T13:10:02.699Z,5.32
2023-06-24T13:12:30.060Z,5.00
2023-06-24T13:14:57.511Z,4.30
2023-06-24T13:17:25.642Z,4.05
2023-06-24T13:19:53.736Z,4.50
2023-06-24T13:22:21.228Z,5.03
2023-06-24T13:24:48.888Z,6.43
2023-06-24T13:27:17.727Z,4.65
2023-06-24T13:29:45.082Z,8.88
2023-06-24T13:32:12.516Z,3.47
2023-06-24T13:34:40.025Z,3.47
2023-06-24T13:37:07.455Z,6.28
2023-06-24T13:39:34.801Z,6.00
2023-06-24T13:42:02.131Z,7.25
2023-06-24T13:44:29.480Z,5.25
2023-06-24T13:46:56.974Z,3.92
2023-06-24T13:49:24.431Z,5.50
2023-06-24T13:51:51.778Z,3.03
2023-06-24T13:54:19.198Z,5.20
2023-06-24T13:56:46.731Z,3.20
2023-06-24T13:59:14.190Z,3.33
2023-06-24T14:01:41.750Z,7.80
2023-06-24T14:04:09.215Z,3.25
2023-06-24T14:06:36.748Z,4.03
2023-06-24T14:09:04.273Z,5.65
2023-06-24T14:11:31.591Z,4.55
2023-06-24T14:13:59.099Z,4.63
2023-06-24T14:16:26.401Z,5.15
2023-06-24T14:18:54.384Z,3.92
2023-06-24T14:21:21.958Z,7.93
2023-06-24T14:23:49.675Z,4.97
2023-06-24T14:26:17.305Z,4.95
2023-06-24T14:28:45.014Z,5.50
2023-06-24T14:31:12.420Z,7.85
2023-06-24T14:33:39.873Z,7.13
2023-06-24T14:36:07.314Z,4.85
2023-06-24T14:38:34.731Z,3.88
2023-06-24T14:41:02.066Z,3.75
2023-06-24T14:43:29.405Z,5.88
2023-06-24T14:45:58.836Z,9.00
2023-06-24T14:48:26.176Z,4.68
2023-06-24T14:50:53.595Z,10.40
2023-06-24T14:53:21.024Z,3.67
2023-06-24T14:55:48.376Z,7.32
2023-06-24T14:58:17.285Z,7.18
2023-06-24T15:00:46.611Z,4.00
2023-06-24T15:03:14.393Z,4.07
2023-06-24T15:05:41.983Z,7.32
2023-06-24T15:08:09.330Z,6.03
2023-06-24T15:10:36.966Z,4.75
2023-06-24T15:13:04.782Z,6.40
2023-06-24T15:15:32.299Z,4.70
2023-06-24T15:18:01.184Z,4.05
2023-06-24T15:20:28.581Z,3.38
2023-06-24T15:22:55.898Z,9.43
2023-06-24T15:25:23.290Z,4.35
2023-06-24T15:27:50.667Z,4.75
2023-06-24T15:30:18.101Z,4.35
2023-06-24T15:32:47.301Z,4.25
2023-06-24T15:35:14.799Z,6.53
2023-06-24T15:37:42.225Z,6.00
2023-06-24T15:40:10.088Z,5.10
2023-06-24T15:42:38.252Z,3.05
2023-06-24T15:45:06.793Z,3.53
2023-06-24T15:47:35.436Z,7.35
2023-06-24T15:50:04.136Z,7.63
2023-06-24T15:52:31.723Z,8.68
2023-06-24T15:54:59.252Z,7.50
2023-06-24T15:57:26.635Z,7.97
2023-06-24T15:59:53.991Z,9.48
2023-06-24T16:02:22.081Z,6.68
2023-06-24T16:04:49.514Z,5.65
2023-06-24T16:07:17.007Z,4.43
2023-06-24T16:09:44.373Z,5.10
2023-06-24T16:12:11.793Z,7.80
2023-06-24T16:14:39.273Z,8.05
2023-06-24T16:17:06.642Z,12.10
2023-06-24T16:19:34.182Z,6.80
2023-06-24T16:22:01.513Z,7.78
2023-06-24T16:24:28.827Z,4.60
2023-06-24T16:26:56.206Z,5.18
2023-06-24T16:29:23.610Z,5.38
2023-06-24T16:31:50.936Z,4.82
2023-06-24T16:34:24.267Z,6.95
2023-06-24T16:36:53.010Z,6.60
2023-06-24T16:39:20.767Z,5.80
2023-06-24T16:41:48.335Z,7.22
2023-06-24T16:44:15.655Z,6.03
2023-06-24T16:46:43.143Z,3.10
2023-06-24T16:49:10.597Z,4.10
2023-06-24T16:51:38.226Z,8.35
2023-06-24T16:54:05.576Z,5.55
2023-06-24T16:56:32.835Z,6.90
2023-06-24T16:59:00.252Z,4.15
2023-06-24T17:01:27.736Z,5.43
2023-06-24T17:03:55.081Z,5.25
2023-06-24T17:06:22.444Z,4.97
2023-06-24T17:08:49.709Z,4.68
2023-06-24T17:11:17.150Z,9.20
2023-06-24T17:13:44.442Z,6.93
2023-06-24T17:16:11.758Z,7.43
2023-06-24T17:18:39.180Z,7.82
2023-06-24T17:21:06.544Z,6.93
2023-06-24T17:23:33.936Z,4.85
2023-06-24T17:26:01.440Z,7.45
2023-06-24T17:28:29.018Z,5.38
2023-06-24T17:30:56.598Z,5.03
2023-06-24T17:33:24.750Z,4.18
2023-06-24T17:35:52.196Z,11.43
2023-06-24T17:38:19.673Z,8.00
2023-06-24T17:40:47.091Z,4.93
2023-06-24T17:43:14.598Z,5.55
2023-06-24T17:45:41.997Z,8.65
2023-06-24T17:48:09.505Z,6.65
2023-06-24T17:50:37.175Z,7.10
2023-06-24T17:53:05.820Z,12.95
2023-06-24T17:55:36.471Z,6.00
2023-06-24T17:58:05.131Z,4.30
2023-06-24T18:00:38.391Z,8.43
2023-06-24T18:03:08.533Z,7.00
2023-06-24T18:05:36.478Z,6.00
2023-06-24T18:08:04.440Z,6.80
2023-06-24T18:10:36.273Z,7.93
2023-06-24T18:13:04.969Z,10.25
2023-06-24T18:15:32.474Z,5.40
2023-06-24T18:17:59.897Z,8.27
2023-06-24T18:20:30.213Z,9.73
2023-06-24T18:23:00.216Z,5.32
2023-06-24T18:25:30.653Z,6.30
2023-06-24T18:27:58.207Z,9.32
2023-06-24T18:30:26.122Z,6.30
2023-06-24T18:32:53.619Z,7.45
2023-06-24T18:35:23.451Z,6.35
2023-06-24T18:37:51.398Z,5.32
2023-06-24T18:40:19.146Z,6.07
2023-06-24T18:42:46.648Z,5.05
2023-06-24T18:45:17.198Z,5.28
2023-06-24T18:47:45.206Z,4.97
2023-06-24T18:50:12.822Z,4.70
2023-06-24T18:52:40.802Z,6.70
2023-06-24T18:55:09.043Z,5.07
2023-06-24T18:57:36.440Z,7.43
2023-06-24T19:00:04.658Z,2.95
2023-06-24T19:02:34.721Z,11.52
2023-06-24T19:05:02.198Z,6.95
2023-06-24T19:07:33.109Z,5.15
2023-06-24T19:10:02.635Z,4.82
2023-06-24T19:12:32.368Z,4.25
2023-06-24T19:14:59.820Z,9.18
2023-06-24T19:17:27.293Z,5.75
2023-06-24T19:19:54.843Z,4.25
2023-06-24T19:22:22.979Z,3.50
2023-06-24T19:24:50.552Z,6.95
2023-06-24T19:27:19.289Z,3.85
2023-06-24T19:29:47.007Z,3.67
2023-06-24T19:32:15.007Z,7.30
2023-06-24T19:34:42.394Z,5.50
2023-06-24T19:37:10.002Z,7.25
2023-06-24T19:39:37.507Z,5.15
2023-06-24T19:42:05.169Z,4.57
2023-06-24T19:44:32.647Z,4.45
2023-06-24T19:47:00.008Z,2.97
2023-06-24T19:49:29.236Z,6.13
2023-06-24T19:51:56.660Z,5.05
2023-06-24T19:54:26.179Z,6.97
2023-06-24T19:56:53.809Z,4.78
2023-06-24T19:59:21.255Z,8.05
2023-06-24T20:01:48.622Z,5.63
2023-06-24T20:04:16.318Z,2.50
2023-06-24T20:06:43.834Z,3.08
2023-06-24T20:09:11.450Z,3.42
2023-06-24T20:11:38.723Z,7.22
2023-06-24T20:14:09.115Z,9.77
2023-06-24T20:16:37.194Z,5.63
2023-06-24T20:19:04.660Z,5.20
2023-06-24T20:21:31.983Z,4.05
2023-06-24T20:23:59.720Z,3.53
2023-06-24T20:26:27.112Z,5.85
2023-06-24T20:28:54.468Z,5.90
2023-06-24T20:31:22.045Z,4.63
2023-06-24T20:33:49.388Z,3.42
2023-06-24T20:36:17.969Z,3.70
2023-06-24T20:38:45.393Z,4.85
2023-06-24T20:41:31.356Z,5.03
2023-06-24T20:44:02.494Z,4.32
2023-06-24T20:46:30.380Z,4.03
2023-06-24T20:48:58.619Z,4.57
2023-06-24T20:51:25.966Z,4.90
2023-06-24T20:53:53.248Z,4.68
2023-06-24T20:56:20.866Z,8.93
2023-06-24T20:58:48.420Z,5.25
2023-06-24T21:01:15.747Z,4.65
2023-06-24T21:03:43.096Z,5.68
2023-06-24T21:06:10.544Z,8.00
2023-06-24T21:08:37.826Z,12.27
2023-06-24T21:11:05.157Z,13.27
2023-06-24T21:13:32.458Z,13.00
2023-06-24T21:15:59.763Z,7.00
2023-06-24T21:18:27.089Z,11.73
2023-06-24T21:20:54.414Z,10.65
2023-06-24T21:23:21.804Z,15.23
2023-06-24T21:25:49.438Z,10.10
2023-06-24T21:28:17.016Z,7.03
2023-06-24T21:30:44.352Z,7.25
2023-06-24T21:33:12.036Z,6.88
2023-06-24T21:35:39.919Z,6.38
2023-06-24T21:38:08.107Z,9.65
2023-06-24T21:40:35.635Z,8.38
2023-06-24T21:43:03.199Z,6.47
2023-06-24T21:45:31.689Z,9.73
2023-06-24T21:47:59.453Z,6.25
2023-06-24T21:50:26.822Z,13.45
2023-06-24T21:52:54.405Z,5.43
2023-06-24T21:55:21.896Z,3.70
2023-06-24T21:57:49.302Z,8.82
2023-06-24T22:00:20.058Z,6.50
2023-06-24T22:02:48.058Z,6.35
2023-06-24T22:05:25.313Z,8.10
2023-06-24T22:08:00.960Z,5.63
2023-06-24T22:10:28.330Z,3.97
2023-06-24T22:12:55.810Z,7.47
2023-06-24T22:15:23.244Z,7.30
2023-06-24T22:17:50.565Z,11.95
2023-06-24T22:20:18.086Z,5.63
2023-06-24T22:22:46.419Z,8.02
2023-06-24T22:25:13.872Z,7.45
2023-06-24T22:27:41.287Z,7.68
2023-06-24T22:30:09.457Z,5.05
2023-06-24T22:32:37.354Z,10.95
2023-06-24T22:35:05.137Z,6.90
2023-06-24T22:37:32.589Z,10.52
2023-06-24T22:39:59.867Z,8.65
2023-06-24T22:42:27.924Z,5.70
2023-06-24T22:44:55.278Z,4.80
2023-06-24T22:47:22.653Z,8.40
2023-06-24T22:49:49.960Z,6.43
2023-06-24T22:52:17.342Z,5.97
2023-06-24T22:54:44.630Z,5.72
2023-06-24T22:57:11.991Z,5.60
2023-06-24T22:59:39.342Z,5.50
2023-06-24T23:02:07.508Z,5.88
2023-06-24T23:04:35.185Z,5.63
2023-06-24T23:07:02.686Z,6.28
2023-06-24T23:09:30.317Z,6.50
2023-06-24T23:11:58.925Z,5.60
2023-06-24T23:14:27.086Z,4.78
2023-06-24T23:16:54.595Z,5.10
2023-06-24T23:19:22.165Z,6.68
2023-06-24T23:21:49.667Z,4.40
2023-06-24T23:24:22.510Z,5.28
2023-06-24T23:26:55.538Z,4.60
2023-06-24T23:29:28.127Z,4.95
2023-06-24T23:31:55.707Z,6.63
2023-06-24T23:34:23.282Z,5.80
2023-06-24T23:36:51.006Z,5.82
2023-06-24T23:39:18.687Z,4.90
2023-06-24T23:41:47.195Z,5.65
2023-06-24T23:44:14.711Z,12.40
2023-06-24T23:46:42.069Z,14.40
2023-06-24T23:49:09.393Z,8.25
2023-06-24T23:51:36.686Z,7.05
2023-06-24T23:54:03.973Z,5.60
2023-06-24T23:56:31.247Z,7.13
2023-06-24T23:58:58.530Z,4.50
